sensor_id;sensor_type;location;lat;lon;timestamp;pressure;altitude;pressure_sealevel;temperature;humidity
62942;BME280;49042;47.318;19.874;2022-07-18T00:02:44;101302.47;;;15.85;44.93
62942;BME280;49042;47.318;19.874;2022-07-18T00:05:46;101299.84;;;15.87;45.12
62942;BME280;49042;47.318;19.874;2022-07-18T00:08:48;101304.37;;;15.92;44.96
62942;BME280;49042;47.318;19.874;2022-07-18T00:11:50;101310.25;;;15.80;45.45
62942;BME280;49042;47.318;19.874;2022-07-18T00:14:53;101306.66;;;15.77;45.85
62942;BME280;49042;47.318;19.874;2022-07-18T00:17:55;101313.28;;;15.60;46.41
62942;BME280;49042;47.318;19.874;2022-07-18T00:20:57;101314.59;;;15.78;46.10
62942;BME280;49042;47.318;19.874;2022-07-18T00:23:58;101330.50;;;15.84;45.95
62942;BME280;49042;47.318;19.874;2022-07-18T00:27:03;101324.41;;;15.87;45.80
62942;BME280;49042;47.318;19.874;2022-07-18T00:30:06;101319.78;;;15.75;46.01
62942;BME280;49042;47.318;19.874;2022-07-18T00:33:09;101319.31;;;15.55;46.91
62942;BME280;49042;47.318;19.874;2022-07-18T00:36:11;101319.19;;;15.51;47.13
62942;BME280;49042;47.318;19.874;2022-07-18T00:39:14;101324.59;;;15.56;47.33
62942;BME280;49042;47.318;19.874;2022-07-18T00:42:15;101326.47;;;15.62;47.14
62942;BME280;49042;47.318;19.874;2022-07-18T00:45:20;101324.44;;;15.50;47.67
62942;BME280;49042;47.318;19.874;2022-07-18T00:48:22;101330.38;;;15.43;47.86
62942;BME280;49042;47.318;19.874;2022-07-18T00:51:24;101337.94;;;15.66;47.46
62942;BME280;49042;47.318;19.874;2022-07-18T00:54:26;101333.38;;;15.57;48.11
62942;BME280;49042;47.318;19.874;2022-07-18T00:57:27;101340.78;;;15.38;48.62
62942;BME280;49042;47.318;19.874;2022-07-18T01:00:29;101328.94;;;15.54;47.84
62942;BME280;49042;47.318;19.874;2022-07-18T01:03:50;101329.69;;;15.50;48.27
62942;BME280;49042;47.318;19.874;2022-07-18T01:06:51;101332.97;;;15.41;48.41
62942;BME280;49042;47.318;19.874;2022-07-18T01:09:53;101325.97;;;15.41;47.94
62942;BME280;49042;47.318;19.874;2022-07-18T01:12:56;101325.94;;;15.06;48.70
62942;BME280;49042;47.318;19.874;2022-07-18T01:15:57;101322.91;;;15.23;48.50
62942;BME280;49042;47.318;19.874;2022-07-18T01:19:00;101320.81;;;15.11;48.81
62942;BME280;49042;47.318;19.874;2022-07-18T01:22:01;101332.22;;;15.11;48.78
62942;BME280;49042;47.318;19.874;2022-07-18T01:25:03;101340.66;;;14.99;49.23
62942;BME280;49042;47.318;19.874;2022-07-18T01:28:07;101339.81;;;15.00;48.84
62942;BME280;49042;47.318;19.874;2022-07-18T01:31:08;101334.63;;;15.02;48.63
62942;BME280;49042;47.318;19.874;2022-07-18T01:34:11;101333.06;;;15.10;48.14
62942;BME280;49042;47.318;19.874;2022-07-18T01:37:13;101337.41;;;15.08;48.31
62942;BME280;49042;47.318;19.874;2022-07-18T01:40:17;101328.56;;;15.06;48.46
62942;BME280;49042;47.318;19.874;2022-07-18T01:43:19;101329.94;;;14.91;48.90
62942;BME280;49042;47.318;19.874;2022-07-18T01:46:20;101328.66;;;14.76;48.97
62942;BME280;49042;47.318;19.874;2022-07-18T01:49:23;101328.44;;;14.70;49.21
62942;BME280;49042;47.318;19.874;2022-07-18T01:52:25;101328.28;;;14.64;49.44
62942;BME280;49042;47.318;19.874;2022-07-18T01:55:27;101330.59;;;14.53;49.58
62942;BME280;49042;47.318;19.874;2022-07-18T01:58:29;101328.75;;;14.49;49.62
62942;BME280;49042;47.318;19.874;2022-07-18T02:01:31;101340.12;;;14.49;49.83
62942;BME280;49042;47.318;19.874;2022-07-18T02:04:33;101340.12;;;14.49;49.84
62942;BME280;49042;47.318;19.874;2022-07-18T02:07:54;101340.91;;;14.45;49.92
62942;BME280;49042;47.318;19.874;2022-07-18T02:10:56;101337.88;;;14.31;50.62
62942;BME280;49042;47.318;19.874;2022-07-18T02:13:58;101334.50;;;14.07;51.18
62942;BME280;49042;47.318;19.874;2022-07-18T02:17:00;101341.06;;;14.20;51.49
62942;BME280;49042;47.318;19.874;2022-07-18T02:20:04;101347.47;;;14.30;51.07
62942;BME280;49042;47.318;19.874;2022-07-18T02:23:06;101351.75;;;14.28;51.40
62942;BME280;49042;47.318;19.874;2022-07-18T02:26:10;101345.50;;;14.23;51.78
62942;BME280;49042;47.318;19.874;2022-07-18T02:29:12;101347.78;;;14.12;52.19
62942;BME280;49042;47.318;19.874;2022-07-18T02:32:14;101350.44;;;14.13;52.18
62942;BME280;49042;47.318;19.874;2022-07-18T02:35:16;101359.25;;;14.16;52.19
62942;BME280;49042;47.318;19.874;2022-07-18T02:38:20;101358.44;;;14.17;52.25
62942;BME280;49042;47.318;19.874;2022-07-18T02:41:26;101353.94;;;14.12;52.49
62942;BME280;49042;47.318;19.874;2022-07-18T02:44:31;101361.88;;;14.16;52.61
62942;BME280;49042;47.318;19.874;2022-07-18T02:47:32;101359.09;;;14.11;52.66
62942;BME280;49042;47.318;19.874;2022-07-18T02:50:34;101359.00;;;14.08;52.91
62942;BME280;49042;47.318;19.874;2022-07-18T02:53:36;101366.84;;;14.06;52.93
62942;BME280;49042;47.318;19.874;2022-07-18T02:56:38;101362.47;;;14.07;53.07
62942;BME280;49042;47.318;19.874;2022-07-18T02:59:40;101362.78;;;14.16;52.95
62942;BME280;49042;47.318;19.874;2022-07-18T03:02:43;101364.50;;;14.16;53.10
62942;BME280;49042;47.318;19.874;2022-07-18T03:05:45;101366.25;;;14.15;53.45
62942;BME280;49042;47.318;19.874;2022-07-18T03:08:46;101366.84;;;14.06;54.21
62942;BME280;49042;47.318;19.874;2022-07-18T03:11:48;101363.53;;;14.12;54.23
62942;BME280;49042;47.318;19.874;2022-07-18T03:14:50;101366.53;;;13.97;54.80
62942;BME280;49042;47.318;19.874;2022-07-18T03:17:52;101367.28;;;13.92;54.91
62942;BME280;49042;47.318;19.874;2022-07-18T03:20:54;101367.91;;;13.85;55.49
62942;BME280;49042;47.318;19.874;2022-07-18T03:23:56;101378.91;;;13.73;56.27
62942;BME280;49042;47.318;19.874;2022-07-18T03:26:59;101379.87;;;13.51;57.51
62942;BME280;49042;47.318;19.874;2022-07-18T03:30:01;101375.53;;;13.51;57.76
62942;BME280;49042;47.318;19.874;2022-07-18T03:33:03;101377.47;;;13.57;58.13
62942;BME280;49042;47.318;19.874;2022-07-18T03:36:07;101380.59;;;13.46;58.67
62942;BME280;49042;47.318;19.874;2022-07-18T03:39:10;101375.78;;;13.59;58.66
62942;BME280;49042;47.318;19.874;2022-07-18T03:42:12;101386.75;;;13.47;59.32
62942;BME280;49042;47.318;19.874;2022-07-18T03:45:14;101386.53;;;13.41;59.66
62942;BME280;49042;47.318;19.874;2022-07-18T03:48:16;101392.44;;;13.59;59.22
62942;BME280;49042;47.318;19.874;2022-07-18T03:51:18;101386.16;;;14.08;57.83
62942;BME280;49042;47.318;19.874;2022-07-18T03:54:20;101385.53;;;14.17;57.56
62942;BME280;49042;47.318;19.874;2022-07-18T03:57:22;101386.94;;;14.35;57.59
62942;BME280;49042;47.318;19.874;2022-07-18T04:00:24;101396.22;;;14.53;56.85
62942;BME280;49042;47.318;19.874;2022-07-18T04:03:25;101395.25;;;14.49;57.71
62942;BME280;49042;47.318;19.874;2022-07-18T04:06:27;101397.28;;;14.60;57.22
62942;BME280;49042;47.318;19.874;2022-07-18T04:09:29;101403.66;;;14.68;57.01
62942;BME280;49042;47.318;19.874;2022-07-18T04:12:31;101405.19;;;14.89;56.33
62942;BME280;49042;47.318;19.874;2022-07-18T04:15:34;101398.50;;;15.01;55.63
62942;BME280;49042;47.318;19.874;2022-07-18T04:18:35;101406.37;;;15.01;55.39
62942;BME280;49042;47.318;19.874;2022-07-18T04:21:40;101402.50;;;15.18;54.65
62942;BME280;49042;47.318;19.874;2022-07-18T04:24:42;101407.25;;;15.34;54.47
62942;BME280;49042;47.318;19.874;2022-07-18T04:27:45;101406.84;;;15.18;55.21
62942;BME280;49042;47.318;19.874;2022-07-18T04:30:47;101404.84;;;15.09;55.61
62942;BME280;49042;47.318;19.874;2022-07-18T04:33:49;101402.94;;;15.36;54.78
62942;BME280;49042;47.318;19.874;2022-07-18T04:36:50;101396.47;;;15.57;54.28
62942;BME280;49042;47.318;19.874;2022-07-18T04:39:52;101395.78;;;15.66;54.58
62942;BME280;49042;47.318;19.874;2022-07-18T04:42:54;101393.28;;;15.70;54.42
62942;BME280;49042;47.318;19.874;2022-07-18T04:45:56;101395.22;;;15.78;53.90
62942;BME280;49042;47.318;19.874;2022-07-18T04:48:57;101387.53;;;15.86;53.85
62942;BME280;49042;47.318;19.874;2022-07-18T04:51:59;101385.22;;;16.00;53.55
62942;BME280;49042;47.318;19.874;2022-07-18T04:55:01;101392.25;;;16.01;53.87
62942;BME280;49042;47.318;19.874;2022-07-18T04:58:03;101392.41;;;16.07;53.55
62942;BME280;49042;47.318;19.874;2022-07-18T05:01:05;101392.66;;;16.16;52.79
62942;BME280;49042;47.318;19.874;2022-07-18T05:04:06;101396.63;;;16.36;51.99
62942;BME280;49042;47.318;19.874;2022-07-18T05:07:08;101392.00;;;16.67;51.25
62942;BME280;49042;47.318;19.874;2022-07-18T05:10:11;101396.47;;;16.72;50.82
62942;BME280;49042;47.318;19.874;2022-07-18T05:13:14;101391.53;;;16.87;50.91
62942;BME280;49042;47.318;19.874;2022-07-18T05:16:16;101393.63;;;17.06;50.21
62942;BME280;49042;47.318;19.874;2022-07-18T05:19:18;101389.56;;;17.22;49.45
62942;BME280;49042;47.318;19.874;2022-07-18T05:22:20;101387.69;;;17.18;48.72
62942;BME280;49042;47.318;19.874;2022-07-18T05:25:22;101381.06;;;17.39;48.55
62942;BME280;49042;47.318;19.874;2022-07-18T05:28:24;101377.91;;;17.59;48.80
62942;BME280;49042;47.318;19.874;2022-07-18T05:31:27;101380.97;;;17.84;47.56
62942;BME280;49042;47.318;19.874;2022-07-18T05:34:29;101384.62;;;17.94;46.50
62942;BME280;49042;47.318;19.874;2022-07-18T05:37:31;101381.34;;;18.11;46.93
62942;BME280;49042;47.318;19.874;2022-07-18T05:40:33;101379.97;;;18.36;45.54
62942;BME280;49042;47.318;19.874;2022-07-18T05:43:35;101385.44;;;18.50;45.28
62942;BME280;49042;47.318;19.874;2022-07-18T05:46:37;101378.47;;;18.59;44.97
62942;BME280;49042;47.318;19.874;2022-07-18T05:49:39;101383.88;;;18.67;44.72
62942;BME280;49042;47.318;19.874;2022-07-18T05:52:41;101387.62;;;18.86;44.30
62942;BME280;49042;47.318;19.874;2022-07-18T05:55:43;101383.50;;;19.13;44.34
62942;BME280;49042;47.318;19.874;2022-07-18T05:58:45;101378.16;;;19.09;43.98
62942;BME280;49042;47.318;19.874;2022-07-18T06:01:48;101380.03;;;19.19;43.98
62942;BME280;49042;47.318;19.874;2022-07-18T06:04:50;101376.63;;;19.25;43.09
62942;BME280;49042;47.318;19.874;2022-07-18T06:08:12;101382.09;;;19.45;43.25
62942;BME280;49042;47.318;19.874;2022-07-18T06:11:14;101383.13;;;19.65;42.18
62942;BME280;49042;47.318;19.874;2022-07-18T06:14:16;101380.56;;;19.74;42.52
62942;BME280;49042;47.318;19.874;2022-07-18T06:17:17;101378.94;;;19.95;42.65
62942;BME280;49042;47.318;19.874;2022-07-18T06:20:20;101381.72;;;20.14;40.99
62942;BME280;49042;47.318;19.874;2022-07-18T06:23:22;101380.06;;;20.30;40.52
62942;BME280;49042;47.318;19.874;2022-07-18T06:26:24;101380.06;;;20.27;40.21
62942;BME280;49042;47.318;19.874;2022-07-18T06:29:26;101377.53;;;20.54;39.97
62942;BME280;49042;47.318;19.874;2022-07-18T06:32:28;101381.06;;;20.54;39.98
62942;BME280;49042;47.318;19.874;2022-07-18T06:35:30;101376.72;;;20.75;39.58
62942;BME280;49042;47.318;19.874;2022-07-18T06:38:32;101381.19;;;20.84;39.72
62942;BME280;49042;47.318;19.874;2022-07-18T06:41:34;101382.94;;;20.85;39.98
62942;BME280;49042;47.318;19.874;2022-07-18T06:44:35;101389.19;;;21.02;39.11
62942;BME280;49042;47.318;19.874;2022-07-18T06:47:37;101382.19;;;21.23;38.75
62942;BME280;49042;47.318;19.874;2022-07-18T06:50:40;101376.91;;;21.57;36.67
62942;BME280;49042;47.318;19.874;2022-07-18T06:53:42;101389.25;;;21.77;36.56
62942;BME280;49042;47.318;19.874;2022-07-18T06:56:44;101377.72;;;21.91;36.76
62942;BME280;49042;47.318;19.874;2022-07-18T06:59:46;101383.91;;;22.26;35.33
62942;BME280;49042;47.318;19.874;2022-07-18T07:02:52;101387.44;;;22.36;35.02
62942;BME280;49042;47.318;19.874;2022-07-18T07:05:54;101382.13;;;22.23;35.72
62942;BME280;49042;47.318;19.874;2022-07-18T07:08:56;101383.00;;;22.35;35.60
62942;BME280;49042;47.318;19.874;2022-07-18T07:11:58;101383.81;;;22.54;35.57
62942;BME280;49042;47.318;19.874;2022-07-18T07:15:00;101382.00;;;22.60;34.17
62942;BME280;49042;47.318;19.874;2022-07-18T07:18:02;101378.34;;;22.87;34.12
62942;BME280;49042;47.318;19.874;2022-07-18T07:21:05;101373.84;;;23.00;32.89
62942;BME280;49042;47.318;19.874;2022-07-18T07:24:07;101370.38;;;22.92;33.97
62942;BME280;49042;47.318;19.874;2022-07-18T07:27:09;101363.00;;;23.29;34.00
62942;BME280;49042;47.318;19.874;2022-07-18T07:30:12;101371.78;;;23.42;32.91
62942;BME280;49042;47.318;19.874;2022-07-18T07:33:15;101355.75;;;23.55;33.83
62942;BME280;49042;47.318;19.874;2022-07-18T07:36:18;101352.16;;;23.60;31.04
62942;BME280;49042;47.318;19.874;2022-07-18T07:39:19;101344.03;;;23.73;31.71
62942;BME280;49042;47.318;19.874;2022-07-18T07:42:21;101357.44;;;23.63;31.88
62942;BME280;49042;47.318;19.874;2022-07-18T07:45:23;101346.53;;;23.92;30.84
62942;BME280;49042;47.318;19.874;2022-07-18T07:48:25;101354.31;;;24.07;30.69
62942;BME280;49042;47.318;19.874;2022-07-18T07:51:27;101356.81;;;24.23;31.17
62942;BME280;49042;47.318;19.874;2022-07-18T07:54:35;101362.06;;;24.31;30.75
62942;BME280;49042;47.318;19.874;2022-07-18T07:57:37;101358.53;;;24.31;29.63
62942;BME280;49042;47.318;19.874;2022-07-18T08:00:39;101355.59;;;24.53;29.75
62942;BME280;49042;47.318;19.874;2022-07-18T08:03:41;101354.66;;;24.58;29.02
62942;BME280;49042;47.318;19.874;2022-07-18T08:06:43;101351.06;;;24.61;29.48
62942;BME280;49042;47.318;19.874;2022-07-18T08:09:45;101352.53;;;24.84;28.48
62942;BME280;49042;47.318;19.874;2022-07-18T08:12:46;101351.19;;;25.15;27.64
62942;BME280;49042;47.318;19.874;2022-07-18T08:15:48;101350.75;;;25.43;27.04
62942;BME280;49042;47.318;19.874;2022-07-18T08:18:50;101343.97;;;25.74;27.27
62942;BME280;49042;47.318;19.874;2022-07-18T08:21:52;101346.13;;;26.49;26.94
62942;BME280;49042;47.318;19.874;2022-07-18T08:24:54;101350.53;;;26.91;26.05
62942;BME280;49042;47.318;19.874;2022-07-18T08:27:57;101340.97;;;27.56;24.82
62942;BME280;49042;47.318;19.874;2022-07-18T08:30:59;101346.19;;;27.61;23.49
62942;BME280;49042;47.318;19.874;2022-07-18T08:34:02;101342.13;;;27.79;22.59
62942;BME280;49042;47.318;19.874;2022-07-18T08:37:04;101338.16;;;28.58;22.57
62942;BME280;49042;47.318;19.874;2022-07-18T08:40:07;101336.59;;;28.80;21.65
62942;BME280;49042;47.318;19.874;2022-07-18T08:43:10;101323.47;;;29.52;22.10
62942;BME280;49042;47.318;19.874;2022-07-18T08:46:24;101320.19;;;29.69;21.77
62942;BME280;49042;47.318;19.874;2022-07-18T08:49:27;101322.84;;;29.71;21.79
62942;BME280;49042;47.318;19.874;2022-07-18T08:52:29;101321.13;;;30.18;20.08
62942;BME280;49042;47.318;19.874;2022-07-18T08:55:51;101322.50;;;30.99;18.76
62942;BME280;49042;47.318;19.874;2022-07-18T08:58:53;101319.97;;;30.01;20.04
62942;BME280;49042;47.318;19.874;2022-07-18T09:01:55;101321.56;;;31.00;19.98
62942;BME280;49042;47.318;19.874;2022-07-18T09:05:00;101320.66;;;31.43;19.68
62942;BME280;49042;47.318;19.874;2022-07-18T09:08:22;101325.59;;;32.35;17.47
62942;BME280;49042;47.318;19.874;2022-07-18T09:11:24;101319.88;;;32.61;18.55
62942;BME280;49042;47.318;19.874;2022-07-18T09:14:47;101325.09;;;33.57;16.85
62942;BME280;49042;47.318;19.874;2022-07-18T09:17:49;101328.53;;;32.87;16.57
62942;BME280;49042;47.318;19.874;2022-07-18T09:21:07;101325.13;;;32.84;17.57
62942;BME280;49042;47.318;19.874;2022-07-18T09:24:09;101323.66;;;31.58;20.29
62942;BME280;49042;47.318;19.874;2022-07-18T09:27:29;101317.56;;;31.74;19.01
62942;BME280;49042;47.318;19.874;2022-07-18T09:30:33;101319.47;;;32.32;18.33
62942;BME280;49042;47.318;19.874;2022-07-18T09:33:37;101314.72;;;33.11;17.16
62942;BME280;49042;47.318;19.874;2022-07-18T09:36:54;101317.19;;;32.42;19.18
62942;BME280;49042;47.318;19.874;2022-07-18T09:43:23;101310.00;;;33.34;18.66
62942;BME280;49042;47.318;19.874;2022-07-18T09:46:25;101315.53;;;33.67;17.28
62942;BME280;49042;47.318;19.874;2022-07-18T09:49:32;101307.38;;;35.30;15.88
62942;BME280;49042;47.318;19.874;2022-07-18T09:52:35;101315.16;;;36.67;14.20
62942;BME280;49042;47.318;19.874;2022-07-18T09:55:46;101305.34;;;37.46;13.09
62942;BME280;49042;47.318;19.874;2022-07-18T09:58:54;101312.63;;;36.91;14.24
62942;BME280;49042;47.318;19.874;2022-07-18T10:01:56;101299.56;;;37.64;13.18
62942;BME280;49042;47.318;19.874;2022-07-18T10:04:58;101294.13;;;33.96;17.24
62942;BME280;49042;47.318;19.874;2022-07-18T10:08:03;101293.53;;;34.72;16.92
62942;BME280;49042;47.318;19.874;2022-07-18T10:11:06;101294.56;;;37.57;13.80
62942;BME280;49042;47.318;19.874;2022-07-18T10:14:08;101284.34;;;39.34;11.77
62942;BME280;49042;47.318;19.874;2022-07-18T10:17:11;101288.31;;;40.22;11.11
62942;BME280;49042;47.318;19.874;2022-07-18T10:20:14;101285.31;;;40.69;10.91
62942;BME280;49042;47.318;19.874;2022-07-18T10:23:19;101284.28;;;39.58;12.01
62942;BME280;49042;47.318;19.874;2022-07-18T10:26:26;101277.81;;;39.94;10.68
62942;BME280;49042;47.318;19.874;2022-07-18T10:29:28;101285.88;;;40.07;11.77
62942;BME280;49042;47.318;19.874;2022-07-18T10:32:33;101279.06;;;39.67;12.55
62942;BME280;49042;47.318;19.874;2022-07-18T10:35:58;101272.34;;;39.36;11.86
62942;BME280;49042;47.318;19.874;2022-07-18T10:42:15;101277.25;;;36.22;13.41
62942;BME280;49042;47.318;19.874;2022-07-18T10:45:43;101263.81;;;35.92;13.27
62942;BME280;49042;47.318;19.874;2022-07-18T10:48:50;101264.00;;;35.30;14.10
62942;BME280;49042;47.318;19.874;2022-07-18T10:51:52;101254.19;;;34.34;14.38
62942;BME280;49042;47.318;19.874;2022-07-18T11:01:16;101242.56;;;32.23;16.44
62942;BME280;49042;47.318;19.874;2022-07-18T11:04:26;101239.88;;;32.78;16.99
62942;BME280;49042;47.318;19.874;2022-07-18T11:07:34;101241.00;;;32.17;17.45
62942;BME280;49042;47.318;19.874;2022-07-18T11:13:48;101232.59;;;29.39;18.43
62942;BME280;49042;47.318;19.874;2022-07-18T11:17:04;101227.91;;;29.19;18.84
62942;BME280;49042;47.318;19.874;2022-07-18T11:23:27;101227.00;;;29.94;19.63
62942;BME280;49042;47.318;19.874;2022-07-18T11:26:47;101220.63;;;29.97;18.58
62942;BME280;49042;47.318;19.874;2022-07-18T11:29:49;101212.47;;;30.22;19.39
62942;BME280;49042;47.318;19.874;2022-07-18T11:32:51;101209.41;;;30.09;18.40
62942;BME280;49042;47.318;19.874;2022-07-18T11:36:12;101201.28;;;29.63;19.41
62942;BME280;49042;47.318;19.874;2022-07-18T11:39:27;101202.25;;;29.36;19.64
62942;BME280;49042;47.318;19.874;2022-07-18T11:42:40;101204.47;;;29.24;20.47
62942;BME280;49042;47.318;19.874;2022-07-18T11:45:41;101191.84;;;29.26;20.31
62942;BME280;49042;47.318;19.874;2022-07-18T11:48:46;101191.84;;;29.26;19.77
62942;BME280;49042;47.318;19.874;2022-07-18T11:51:48;101190.00;;;29.28;20.31
62942;BME280;49042;47.318;19.874;2022-07-18T11:54:50;101191.91;;;29.25;19.74
62942;BME280;49042;47.318;19.874;2022-07-18T11:57:52;101183.81;;;29.75;19.75
62942;BME280;49042;47.318;19.874;2022-07-18T12:00:58;101187.47;;;29.72;19.62
62942;BME280;49042;47.318;19.874;2022-07-18T12:04:00;101184.97;;;29.93;19.23
62942;BME280;49042;47.318;19.874;2022-07-18T12:10:16;101174.91;;;30.43;17.88
62942;BME280;49042;47.318;19.874;2022-07-18T12:13:18;101174.19;;;30.15;18.45
62942;BME280;49042;47.318;19.874;2022-07-18T12:19:40;101167.94;;;30.15;19.64
62942;BME280;49042;47.318;19.874;2022-07-18T12:23:09;101156.09;;;30.64;18.15
62942;BME280;49042;47.318;19.874;2022-07-18T12:26:30;101165.66;;;30.72;16.92
62942;BME280;49042;47.318;19.874;2022-07-18T12:30:01;101163.56;;;31.41;17.30
62942;BME280;49042;47.318;19.874;2022-07-18T12:33:07;101154.41;;;31.25;16.61
62942;BME280;49042;47.318;19.874;2022-07-18T12:36:10;101154.66;;;31.39;16.69
62942;BME280;49042;47.318;19.874;2022-07-18T12:39:25;101155.75;;;32.50;16.39
62942;BME280;49042;47.318;19.874;2022-07-18T12:42:28;101147.47;;;33.07;14.65
62942;BME280;49042;47.318;19.874;2022-07-18T12:45:30;101143.38;;;34.15;14.44
62942;BME280;49042;47.318;19.874;2022-07-18T12:48:34;101145.75;;;34.83;14.11
62942;BME280;49042;47.318;19.874;2022-07-18T12:51:36;101154.81;;;35.99;12.86
62942;BME280;49042;47.318;19.874;2022-07-18T12:54:38;101146.94;;;35.52;13.85
62942;BME280;49042;47.318;19.874;2022-07-18T12:57:40;101133.94;;;38.33;10.66
62942;BME280;49042;47.318;19.874;2022-07-18T13:00:42;101139.31;;;39.05;10.62
62942;BME280;49042;47.318;19.874;2022-07-18T13:03:45;101142.91;;;39.40;12.17
62942;BME280;49042;47.318;19.874;2022-07-18T13:06:47;101141.72;;;42.39;9.40
62942;BME280;49042;47.318;19.874;2022-07-18T13:09:49;101141.28;;;43.77;8.16
62942;BME280;49042;47.318;19.874;2022-07-18T13:12:51;101144.19;;;46.14;6.92
62942;BME280;49042;47.318;19.874;2022-07-18T13:15:53;101138.81;;;44.48;7.41
62942;BME280;49042;47.318;19.874;2022-07-18T13:18:55;101131.13;;;43.88;7.98
62942;BME280;49042;47.318;19.874;2022-07-18T13:21:58;101126.56;;;48.32;5.46
62942;BME280;49042;47.318;19.874;2022-07-18T13:25:00;101130.12;;;48.86;5.31
62942;BME280;49042;47.318;19.874;2022-07-18T13:28:02;101128.84;;;49.79;4.89
62942;BME280;49042;47.318;19.874;2022-07-18T13:31:04;101127.03;;;50.51;4.48
62942;BME280;49042;47.318;19.874;2022-07-18T13:34:06;101123.06;;;49.58;4.36
62942;BME280;49042;47.318;19.874;2022-07-18T13:37:08;101117.84;;;49.92;4.95
62942;BME280;49042;47.318;19.874;2022-07-18T13:40:10;101116.28;;;49.39;6.03
62942;BME280;49042;47.318;19.874;2022-07-18T13:43:13;101121.03;;;47.93;5.77
62942;BME280;49042;47.318;19.874;2022-07-18T13:46:15;101121.56;;;48.12;5.62
62942;BME280;49042;47.318;19.874;2022-07-18T13:49:19;101114.25;;;45.94;6.26
62942;BME280;49042;47.318;19.874;2022-07-18T13:52:21;101116.09;;;45.85;6.67
62942;BME280;49042;47.318;19.874;2022-07-18T13:55:23;101109.22;;;48.53;5.20
62942;BME280;49042;47.318;19.874;2022-07-18T13:58:25;101105.41;;;48.54;4.80
62942;BME280;49042;47.318;19.874;2022-07-18T14:01:27;101097.91;;;44.45;6.63
62942;BME280;49042;47.318;19.874;2022-07-18T14:04:29;101101.53;;;46.67;6.31
62942;BME280;49042;47.318;19.874;2022-07-18T14:07:51;101099.38;;;45.70;6.61
62942;BME280;49042;47.318;19.874;2022-07-18T14:10:53;101103.50;;;46.49;6.20
62942;BME280;49042;47.318;19.874;2022-07-18T14:13:55;101103.28;;;48.57;4.97
62942;BME280;49042;47.318;19.874;2022-07-18T14:16:57;101101.19;;;48.13;5.74
62942;BME280;49042;47.318;19.874;2022-07-18T14:19:59;101087.84;;;47.54;5.91
62942;BME280;49042;47.318;19.874;2022-07-18T14:23:00;101093.50;;;48.69;5.52
62942;BME280;49042;47.318;19.874;2022-07-18T14:26:02;101096.62;;;47.58;5.70
62942;BME280;49042;47.318;19.874;2022-07-18T14:29:04;101084.84;;;46.68;5.78
62942;BME280;49042;47.318;19.874;2022-07-18T14:32:06;101087.81;;;44.89;6.72
62942;BME280;49042;47.318;19.874;2022-07-18T14:35:09;101081.94;;;45.19;7.22
62942;BME280;49042;47.318;19.874;2022-07-18T14:38:12;101083.75;;;45.87;7.47
62942;BME280;49042;47.318;19.874;2022-07-18T14:41:14;101080.13;;;43.20;7.70
62942;BME280;49042;47.318;19.874;2022-07-18T14:44:16;101078.84;;;44.25;6.87
62942;BME280;49042;47.318;19.874;2022-07-18T14:47:17;101070.31;;;40.58;9.35
62942;BME280;49042;47.318;19.874;2022-07-18T14:50:19;101078.53;;;39.49;10.35
62942;BME280;49042;47.318;19.874;2022-07-18T14:53:21;101070.34;;;37.35;11.25
62942;BME280;49042;47.318;19.874;2022-07-18T14:56:23;101064.69;;;34.34;13.89
62942;BME280;49042;47.318;19.874;2022-07-18T14:59:27;101065.38;;;33.09;15.49
62942;BME280;49042;47.318;19.874;2022-07-18T15:02:29;101057.37;;;33.73;15.49
62942;BME280;49042;47.318;19.874;2022-07-18T15:05:31;101064.16;;;33.15;16.17
62942;BME280;49042;47.318;19.874;2022-07-18T15:08:32;101056.22;;;32.26;16.89
62942;BME280;49042;47.318;19.874;2022-07-18T15:11:35;101058.31;;;32.55;15.40
62942;BME280;49042;47.318;19.874;2022-07-18T15:14:37;101051.81;;;32.41;16.05
62942;BME280;49042;47.318;19.874;2022-07-18T15:17:39;101046.81;;;32.15;15.89
62942;BME280;49042;47.318;19.874;2022-07-18T15:20:41;101047.06;;;32.46;16.02
62942;BME280;49042;47.318;19.874;2022-07-18T15:23:45;101044.31;;;31.93;15.19
62942;BME280;49042;47.318;19.874;2022-07-18T15:26:47;101033.81;;;32.24;14.90
62942;BME280;49042;47.318;19.874;2022-07-18T15:29:49;101030.44;;;31.83;15.31
62942;BME280;49042;47.318;19.874;2022-07-18T15:32:51;101022.59;;;32.14;15.07
62942;BME280;49042;47.318;19.874;2022-07-18T15:35:53;101020.19;;;31.72;17.23
62942;BME280;49042;47.318;19.874;2022-07-18T15:38:55;101027.25;;;31.55;17.07
62942;BME280;49042;47.318;19.874;2022-07-18T15:41:57;101017.50;;;31.72;16.37
62942;BME280;49042;47.318;19.874;2022-07-18T15:44:59;101015.19;;;31.82;14.88
62942;BME280;49042;47.318;19.874;2022-07-18T15:48:01;101010.00;;;31.40;16.42
62942;BME280;49042;47.318;19.874;2022-07-18T15:51:04;101016.00;;;31.27;16.12
62942;BME280;49042;47.318;19.874;2022-07-18T15:54:09;101015.63;;;31.16;15.45
62942;BME280;49042;47.318;19.874;2022-07-18T15:57:11;101010.06;;;30.80;16.28
62942;BME280;49042;47.318;19.874;2022-07-18T16:00:13;101018.91;;;30.42;16.43
62942;BME280;49042;47.318;19.874;2022-07-18T16:03:15;101012.97;;;30.33;16.26
62942;BME280;49042;47.318;19.874;2022-07-18T16:06:16;101011.69;;;30.21;16.27
62942;BME280;49042;47.318;19.874;2022-07-18T16:09:19;101009.44;;;29.89;16.46
62942;BME280;49042;47.318;19.874;2022-07-18T16:12:22;101008.50;;;29.68;18.06
62942;BME280;49042;47.318;19.874;2022-07-18T16:15:24;101010.34;;;29.66;17.70